UAE5GE OMDB-OBBI
Flight info
| Callsign | UAE5GE |
|---|---|
| Flight time | 0h 48m |
| Altitude | 26000 |
| Route | NABIX P699 ORMID Y856 ORDIG |
| Aircraft | A359/H-SDE2E3GHIJ3J4J5LM1ORWXY/LB1D1 |
Departure
| Time | 2026-05-06 22:53 |
|---|---|
| Airport | Dubai International Airport (OMDB) |
Arrival
| Time | 2026-05-06 23:42 |
|---|---|
| Airport | Bahrain International Airport (OBBI) |
| Time | Latitude | Longitude | Altitude | Speed | Heading |
|---|---|---|---|---|---|
| 2026-05-06 21:25 | 25.24843 | 55.36372 | 27 ft | 0 kts | 211° |
| 2026-05-06 22:35 | 25.24844 | 55.36373 | 27 ft | 2 kts | 211° |
| 2026-05-06 22:35 | 25.24866 | 55.36388 | 27 ft | 4 kts | 211° |
| 2026-05-06 22:35 | 25.24888 | 55.36402 | 25 ft | 2 kts | 211° |
| 2026-05-06 22:36 | 25.24906 | 55.36418 | 26 ft | 4 kts | 242° |
| 2026-05-06 22:36 | 25.24910 | 55.36444 | 25 ft | 4 kts | 288° |
| 2026-05-06 22:36 | 25.24899 | 55.36469 | 26 ft | 4 kts | 302° |
| 2026-05-06 22:36 | 25.24886 | 55.36493 | 26 ft | 1 kts | 302° |
| 2026-05-06 22:37 | 25.24885 | 55.36493 | 26 ft | 0 kts | 302° |
| 2026-05-06 22:38 | 25.24886 | 55.36492 | 27 ft | 2 kts | 302° |
| 2026-05-06 22:39 | 25.24895 | 55.36477 | 28 ft | 0 kts | 303° |
| 2026-05-06 22:39 | 25.24895 | 55.36476 | 28 ft | 0 kts | 303° |
| 2026-05-06 22:39 | 25.24903 | 55.36463 | 28 ft | 4 kts | 303° |
| 2026-05-06 22:40 | 25.24931 | 55.36415 | 28 ft | 11 kts | 302° |
| 2026-05-06 22:40 | 25.24980 | 55.36327 | 27 ft | 15 kts | 301° |
| 2026-05-06 22:40 | 25.25037 | 55.36225 | 27 ft | 16 kts | 303° |
| 2026-05-06 22:40 | 25.25102 | 55.36113 | 28 ft | 18 kts | 302° |
| 2026-05-06 22:41 | 25.25241 | 55.35864 | 27 ft | 14 kts | 302° |
| 2026-05-06 22:41 | 25.25245 | 55.35858 | 27 ft | 0 kts | 302° |
| 2026-05-06 22:41 | 25.25248 | 55.35852 | 27 ft | 4 kts | 302° |
| 2026-05-06 22:42 | 25.25283 | 55.35789 | 27 ft | 16 kts | 302° |
| 2026-05-06 22:42 | 25.25362 | 55.35649 | 27 ft | 27 kts | 302° |
| 2026-05-06 22:42 | 25.25465 | 55.35466 | 27 ft | 29 kts | 302° |
| 2026-05-06 22:42 | 25.25561 | 55.35295 | 27 ft | 17 kts | 302° |
| 2026-05-06 22:43 | 25.25614 | 55.35200 | 27 ft | 0 kts | 302° |
| 2026-05-06 22:43 | 25.25657 | 55.35161 | 27 ft | 12 kts | 339° |
| 2026-05-06 22:43 | 25.25732 | 55.35189 | 27 ft | 12 kts | 34° |
| 2026-05-06 22:44 | 25.25809 | 55.35243 | 27 ft | 14 kts | 31° |
| 2026-05-06 22:44 | 25.25899 | 55.35303 | 28 ft | 16 kts | 31° |
| 2026-05-06 22:44 | 25.25985 | 55.35386 | 28 ft | 17 kts | 57° |
| 2026-05-06 22:44 | 25.26006 | 55.35478 | 28 ft | 13 kts | 89° |
| 2026-05-06 22:45 | 25.25987 | 55.35568 | 27 ft | 0 kts | 109° |
| 2026-05-06 22:45 | 25.25966 | 55.35598 | 28 ft | 9 kts | 127° |
| 2026-05-06 22:45 | 25.25941 | 55.35640 | 28 ft | 11 kts | 123° |
| 2026-05-06 22:46 | 25.25896 | 55.35719 | 28 ft | 13 kts | 122° |
| 2026-05-06 22:46 | 25.25844 | 55.35810 | 28 ft | 15 kts | 122° |
| 2026-05-06 22:46 | 25.25786 | 55.35913 | 28 ft | 17 kts | 122° |
| 2026-05-06 22:46 | 25.25715 | 55.36042 | 29 ft | 33 kts | 121° |
| 2026-05-06 22:47 | 25.25654 | 55.36154 | 29 ft | 0 kts | 121° |
| 2026-05-06 22:47 | 25.25635 | 55.36186 | 29 ft | 12 kts | 123° |
| 2026-05-06 22:47 | 25.25576 | 55.36287 | 29 ft | 17 kts | 122° |
| 2026-05-06 22:47 | 25.25505 | 55.36411 | 28 ft | 21 kts | 122° |
| 2026-05-06 22:48 | 25.25426 | 55.36553 | 28 ft | 21 kts | 121° |
| 2026-05-06 22:48 | 25.25349 | 55.36691 | 28 ft | 22 kts | 121° |
| 2026-05-06 22:48 | 25.25269 | 55.36835 | 28 ft | 20 kts | 122° |
| 2026-05-06 22:48 | 25.25191 | 55.36973 | 28 ft | 22 kts | 122° |
| 2026-05-06 22:49 | 25.25109 | 55.37118 | 29 ft | 21 kts | 123° |
| 2026-05-06 22:49 | 25.25029 | 55.37257 | 29 ft | 22 kts | 122° |
| 2026-05-06 22:49 | 25.24944 | 55.37407 | 30 ft | 24 kts | 122° |
| 2026-05-06 22:49 | 25.24890 | 55.37504 | 29 ft | 11 kts | 120° |
| 2026-05-06 22:50 | 25.24884 | 55.37514 | 29 ft | 3 kts | 120° |
| 2026-05-06 22:50 | 25.24830 | 55.37616 | 29 ft | 19 kts | 121° |
| 2026-05-06 22:50 | 25.24757 | 55.37744 | 29 ft | 21 kts | 123° |
| 2026-05-06 22:50 | 25.24720 | 55.37858 | 29 ft | 14 kts | 74° |
| 2026-05-06 22:51 | 25.24743 | 55.37888 | 29 ft | 0 kts | 39° |
| 2026-05-06 22:52 | 25.24745 | 55.37890 | 29 ft | 4 kts | 39° |
| 2026-05-06 22:52 | 25.24829 | 55.37935 | 31 ft | 16 kts | 355° |
| 2026-05-06 22:52 | 25.24901 | 55.37856 | 32 ft | 16 kts | 303° |
| 2026-05-06 22:52 | 25.25089 | 55.37521 | 34 ft | 98 kts | 302° |
| 2026-05-06 22:53 | 25.25608 | 55.36588 | 34 ft | 184 kts | 302° |
| 2026-05-06 22:53 | 25.26383 | 55.35196 | 145 ft | 238 kts | 302° |
| 2026-05-06 22:53 | 25.27306 | 55.33553 | 734 ft | 257 kts | 301° |
| 2026-05-06 22:53 | 25.28236 | 55.31880 | 1878 ft | 254 kts | 301° |
| 2026-05-06 22:54 | 25.29085 | 55.30213 | 3085 ft | 245 kts | 291° |
| 2026-05-06 22:54 | 25.29225 | 55.28401 | 4067 ft | 242 kts | 256° |
| 2026-05-06 22:54 | 25.28593 | 55.26612 | 4526 ft | 266 kts | 243° |
| 2026-05-06 22:54 | 25.27702 | 55.24713 | 4940 ft | 286 kts | 242° |
| 2026-05-06 22:55 | 25.26800 | 55.22760 | 5971 ft | 280 kts | 243° |
| 2026-05-06 22:55 | 25.25955 | 55.20868 | 7113 ft | 270 kts | 243° |
| 2026-05-06 22:55 | 25.25145 | 55.19024 | 8082 ft | 264 kts | 244° |
| 2026-05-06 22:55 | 25.24366 | 55.17190 | 8864 ft | 265 kts | 246° |
| 2026-05-06 22:56 | 25.23864 | 55.15211 | 9379 ft | 275 kts | 260° |
| 2026-05-06 22:56 | 25.23550 | 55.13048 | 9650 ft | 295 kts | 263° |
| 2026-05-06 22:56 | 25.23256 | 55.10759 | 10082 ft | 305 kts | 263° |
| 2026-05-06 22:56 | 25.22945 | 55.08376 | 10411 ft | 322 kts | 262° |
| 2026-05-06 22:57 | 25.22609 | 55.05856 | 10652 ft | 341 kts | 262° |
| 2026-05-06 22:57 | 25.22250 | 55.03204 | 10900 ft | 357 kts | 262° |
| 2026-05-06 22:57 | 25.21879 | 55.00457 | 11345 ft | 365 kts | 263° |
| 2026-05-06 22:57 | 25.21697 | 54.97639 | 11877 ft | 370 kts | 269° |
| 2026-05-06 22:58 | 25.21624 | 54.94787 | 12414 ft | 374 kts | 270° |
| 2026-05-06 22:58 | 25.21576 | 54.91898 | 12938 ft | 378 kts | 271° |
| 2026-05-06 22:58 | 25.21539 | 54.88976 | 13458 ft | 382 kts | 271° |
| 2026-05-06 22:58 | 25.21505 | 54.86027 | 13935 ft | 385 kts | 271° |
| 2026-05-06 22:59 | 25.21473 | 54.83070 | 14480 ft | 385 kts | 271° |
| 2026-05-06 22:59 | 25.21442 | 54.80095 | 14869 ft | 390 kts | 270° |
| 2026-05-06 22:59 | 25.21411 | 54.77054 | 14998 ft | 403 kts | 270° |
| 2026-05-06 22:59 | 25.21378 | 54.73909 | 15005 ft | 417 kts | 270° |
| 2026-05-06 23:00 | 25.21344 | 54.70654 | 15004 ft | 430 kts | 270° |
| 2026-05-06 23:00 | 25.21309 | 54.67304 | 15010 ft | 443 kts | 270° |
| 2026-05-06 23:00 | 25.21271 | 54.63860 | 15009 ft | 454 kts | 270° |
| 2026-05-06 23:00 | 25.21231 | 54.60381 | 15011 ft | 464 kts | 270° |
| 2026-05-06 23:01 | 25.21189 | 54.56775 | 15013 ft | 455 kts | 270° |
| 2026-05-06 23:01 | 25.21245 | 54.53407 | 15022 ft | 442 kts | 277° |
| 2026-05-06 23:01 | 25.21737 | 54.50034 | 15015 ft | 448 kts | 283° |
| 2026-05-06 23:01 | 25.22485 | 54.46672 | 15012 ft | 454 kts | 287° |
| 2026-05-06 23:02 | 25.23364 | 54.43302 | 15009 ft | 459 kts | 288° |
| 2026-05-06 23:02 | 25.24291 | 54.39904 | 15010 ft | 464 kts | 288° |
| 2026-05-06 23:02 | 25.25181 | 54.36621 | 15024 ft | 433 kts | 288° |
| 2026-05-06 23:02 | 25.26024 | 54.33444 | 15522 ft | 427 kts | 287° |
| 2026-05-06 23:03 | 25.26831 | 54.30336 | 16306 ft | 414 kts | 287° |
| 2026-05-06 23:03 | 25.27601 | 54.27324 | 17157 ft | 402 kts | 286° |
| 2026-05-06 23:03 | 25.28335 | 54.24386 | 17971 ft | 392 kts | 285° |
| 2026-05-06 23:03 | 25.29049 | 54.21497 | 18448 ft | 390 kts | 285° |
| 2026-05-06 23:04 | 25.29761 | 54.18604 | 18815 ft | 390 kts | 285° |
| 2026-05-06 23:04 | 25.30474 | 54.15704 | 19151 ft | 392 kts | 285° |
| 2026-05-06 23:04 | 25.31190 | 54.12793 | 19505 ft | 393 kts | 285° |
| 2026-05-06 23:04 | 25.31871 | 54.09869 | 19864 ft | 393 kts | 283° |
| 2026-05-06 23:05 | 25.32499 | 54.06919 | 20175 ft | 395 kts | 282° |
| 2026-05-06 23:05 | 25.33106 | 54.03946 | 20514 ft | 397 kts | 282° |
| 2026-05-06 23:05 | 25.33710 | 54.00965 | 20826 ft | 399 kts | 282° |
| 2026-05-06 23:05 | 25.34322 | 53.97973 | 21146 ft | 400 kts | 282° |
| 2026-05-06 23:06 | 25.34946 | 53.94962 | 21577 ft | 403 kts | 282° |
| 2026-05-06 23:06 | 25.35577 | 53.91938 | 22161 ft | 405 kts | 282° |
| 2026-05-06 23:06 | 25.36215 | 53.88906 | 22825 ft | 406 kts | 282° |
| 2026-05-06 23:06 | 25.36856 | 53.85863 | 23460 ft | 407 kts | 282° |
| 2026-05-06 23:07 | 25.37503 | 53.82802 | 23975 ft | 410 kts | 282° |
| 2026-05-06 23:07 | 25.38153 | 53.79726 | 24496 ft | 412 kts | 282° |
| 2026-05-06 23:07 | 25.38803 | 53.76636 | 25036 ft | 414 kts | 281° |
| 2026-05-06 23:07 | 25.39455 | 53.73527 | 25519 ft | 416 kts | 281° |
| 2026-05-06 23:08 | 25.40108 | 53.70411 | 25747 ft | 415 kts | 281° |
| 2026-05-06 23:08 | 25.40747 | 53.67364 | 25802 ft | 398 kts | 281° |
| 2026-05-06 23:08 | 25.41363 | 53.64430 | 25800 ft | 387 kts | 281° |
| 2026-05-06 23:08 | 25.41968 | 53.61537 | 25785 ft | 386 kts | 281° |
| 2026-05-06 23:09 | 25.42571 | 53.58644 | 25801 ft | 386 kts | 281° |
| 2026-05-06 23:09 | 25.43176 | 53.55750 | 25798 ft | 386 kts | 281° |
| 2026-05-06 23:09 | 25.43779 | 53.52859 | 25796 ft | 386 kts | 281° |
| 2026-05-06 23:09 | 25.44379 | 53.49965 | 25792 ft | 386 kts | 281° |
| 2026-05-06 23:10 | 25.44979 | 53.47069 | 25784 ft | 386 kts | 281° |
| 2026-05-06 23:10 | 25.45579 | 53.44172 | 25801 ft | 386 kts | 281° |
| 2026-05-06 23:10 | 25.46178 | 53.41279 | 25792 ft | 386 kts | 281° |
| 2026-05-06 23:10 | 25.46778 | 53.38384 | 25791 ft | 386 kts | 281° |
| 2026-05-06 23:11 | 25.47369 | 53.35530 | 25789 ft | 385 kts | 281° |
| 2026-05-06 23:11 | 25.47966 | 53.32642 | 25798 ft | 385 kts | 281° |
| 2026-05-06 23:11 | 25.48562 | 53.29757 | 25795 ft | 384 kts | 281° |
| 2026-05-06 23:11 | 25.49157 | 53.26874 | 25790 ft | 384 kts | 281° |
| 2026-05-06 23:12 | 25.49752 | 53.23990 | 25799 ft | 384 kts | 281° |
| 2026-05-06 23:12 | 25.50349 | 53.21105 | 25793 ft | 384 kts | 281° |
| 2026-05-06 23:12 | 25.50942 | 53.18219 | 25791 ft | 384 kts | 281° |
| 2026-05-06 23:12 | 25.51532 | 53.15340 | 25794 ft | 384 kts | 281° |
| 2026-05-06 23:13 | 25.52122 | 53.12449 | 25794 ft | 384 kts | 281° |
| 2026-05-06 23:13 | 25.52711 | 53.09561 | 25794 ft | 384 kts | 281° |
| 2026-05-06 23:13 | 25.53300 | 53.06675 | 25790 ft | 384 kts | 281° |
| 2026-05-06 23:13 | 25.53890 | 53.03787 | 25792 ft | 384 kts | 281° |
| 2026-05-06 23:14 | 25.54477 | 53.00903 | 25798 ft | 384 kts | 281° |
| 2026-05-06 23:14 | 25.55067 | 52.98012 | 25791 ft | 384 kts | 280° |
| 2026-05-06 23:14 | 25.55654 | 52.95128 | 25795 ft | 384 kts | 280° |
| 2026-05-06 23:14 | 25.56296 | 52.92255 | 25792 ft | 386 kts | 285° |
| 2026-05-06 23:15 | 25.57306 | 52.89494 | 25799 ft | 388 kts | 292° |
| 2026-05-06 23:15 | 25.58492 | 52.86810 | 25798 ft | 388 kts | 294° |
| 2026-05-06 23:15 | 25.59744 | 52.84166 | 25794 ft | 388 kts | 295° |
| 2026-05-06 23:15 | 25.61031 | 52.81538 | 25795 ft | 388 kts | 295° |
| 2026-05-06 23:16 | 25.62328 | 52.78919 | 25794 ft | 388 kts | 296° |
| 2026-05-06 23:16 | 25.63625 | 52.76304 | 25796 ft | 388 kts | 295° |
| 2026-05-06 23:16 | 25.64918 | 52.73682 | 25805 ft | 387 kts | 295° |
| 2026-05-06 23:16 | 25.66205 | 52.71058 | 25797 ft | 387 kts | 295° |
| 2026-05-06 23:17 | 25.67486 | 52.68432 | 25796 ft | 387 kts | 295° |
| 2026-05-06 23:17 | 25.68766 | 52.65803 | 25799 ft | 387 kts | 295° |
| 2026-05-06 23:17 | 25.70043 | 52.63175 | 25801 ft | 387 kts | 295° |
| 2026-05-06 23:17 | 25.71319 | 52.60546 | 25801 ft | 387 kts | 295° |
| 2026-05-06 23:18 | 25.72593 | 52.57920 | 25805 ft | 387 kts | 295° |
| 2026-05-06 23:18 | 25.73868 | 52.55290 | 25801 ft | 387 kts | 295° |
| 2026-05-06 23:18 | 25.75143 | 52.52660 | 25802 ft | 387 kts | 295° |
| 2026-05-06 23:18 | 25.76417 | 52.50033 | 25800 ft | 387 kts | 295° |
| 2026-05-06 23:19 | 25.77675 | 52.47398 | 25803 ft | 387 kts | 294° |
| 2026-05-06 23:19 | 25.78908 | 52.44749 | 25805 ft | 386 kts | 294° |
| 2026-05-06 23:19 | 25.80130 | 52.42094 | 25802 ft | 386 kts | 294° |
| 2026-05-06 23:19 | 25.81351 | 52.39436 | 25802 ft | 386 kts | 294° |
| 2026-05-06 23:20 | 25.82573 | 52.36782 | 25802 ft | 386 kts | 294° |
| 2026-05-06 23:20 | 25.83796 | 52.34132 | 25804 ft | 386 kts | 294° |
| 2026-05-06 23:20 | 25.85023 | 52.31479 | 25806 ft | 386 kts | 294° |
| 2026-05-06 23:20 | 25.86271 | 52.28837 | 25802 ft | 387 kts | 296° |
| 2026-05-06 23:21 | 25.87810 | 52.26370 | 25823 ft | 391 kts | 305° |
| 2026-05-06 23:21 | 25.89557 | 52.24053 | 25812 ft | 392 kts | 307° |
| 2026-05-06 23:21 | 25.91370 | 52.21789 | 25813 ft | 393 kts | 308° |
| 2026-05-06 23:21 | 25.93196 | 52.19581 | 25811 ft | 393 kts | 309° |
| 2026-05-06 23:22 | 25.95082 | 52.17329 | 25811 ft | 393 kts | 309° |
| 2026-05-06 23:22 | 25.96921 | 52.15138 | 25814 ft | 393 kts | 309° |
| 2026-05-06 23:22 | 25.98785 | 52.12909 | 25814 ft | 393 kts | 309° |
| 2026-05-06 23:22 | 26.00641 | 52.10680 | 25813 ft | 393 kts | 309° |
| 2026-05-06 23:23 | 26.02493 | 52.08447 | 25809 ft | 393 kts | 308° |
| 2026-05-06 23:23 | 26.04328 | 52.06230 | 25577 ft | 387 kts | 308° |
| 2026-05-06 23:23 | 26.06166 | 52.04008 | 24788 ft | 395 kts | 309° |
| 2026-05-06 23:23 | 26.08046 | 52.01726 | 23900 ft | 405 kts | 309° |
| 2026-05-06 23:24 | 26.09970 | 51.99386 | 23012 ft | 414 kts | 309° |
| 2026-05-06 23:24 | 26.11915 | 51.97023 | 22374 ft | 413 kts | 310° |
| 2026-05-06 23:24 | 26.13846 | 51.94683 | 21835 ft | 408 kts | 310° |
| 2026-05-06 23:24 | 26.15757 | 51.92367 | 21328 ft | 404 kts | 310° |
| 2026-05-06 23:25 | 26.17649 | 51.90074 | 20809 ft | 400 kts | 310° |
| 2026-05-06 23:25 | 26.19519 | 51.87804 | 20358 ft | 396 kts | 310° |
| 2026-05-06 23:25 | 26.21374 | 51.85551 | 19834 ft | 393 kts | 311° |
| 2026-05-06 23:25 | 26.23220 | 51.83306 | 19127 ft | 396 kts | 311° |
| 2026-05-06 23:26 | 26.24905 | 51.80917 | 18348 ft | 387 kts | 300° |
| 2026-05-06 23:26 | 26.26271 | 51.78363 | 17690 ft | 383 kts | 297° |
| 2026-05-06 23:26 | 26.27535 | 51.75750 | 16998 ft | 382 kts | 296° |
| 2026-05-06 23:26 | 26.28735 | 51.73112 | 16332 ft | 380 kts | 295° |
| 2026-05-06 23:27 | 26.29891 | 51.70487 | 15713 ft | 376 kts | 295° |
| 2026-05-06 23:27 | 26.31032 | 51.67873 | 15139 ft | 374 kts | 295° |
| 2026-05-06 23:27 | 26.32165 | 51.65281 | 14579 ft | 370 kts | 296° |
| 2026-05-06 23:27 | 26.33296 | 51.62718 | 14126 ft | 368 kts | 296° |
| 2026-05-06 23:28 | 26.34424 | 51.60170 | 13732 ft | 365 kts | 296° |
| 2026-05-06 23:28 | 26.35547 | 51.57640 | 13346 ft | 364 kts | 296° |
| 2026-05-06 23:28 | 26.36670 | 51.55116 | 12995 ft | 362 kts | 296° |
| 2026-05-06 23:28 | 26.37717 | 51.52576 | 12619 ft | 359 kts | 291° |
| 2026-05-06 23:29 | 26.38632 | 51.49993 | 12258 ft | 359 kts | 289° |
| 2026-05-06 23:29 | 26.39502 | 51.47382 | 11892 ft | 357 kts | 288° |
| 2026-05-06 23:29 | 26.40334 | 51.44794 | 11536 ft | 352 kts | 289° |
| 2026-05-06 23:29 | 26.41142 | 51.42235 | 11175 ft | 347 kts | 288° |
| 2026-05-06 23:30 | 26.41909 | 51.39721 | 10822 ft | 338 kts | 284° |
| 2026-05-06 23:30 | 26.42216 | 51.37172 | 10480 ft | 329 kts | 268° |
| 2026-05-06 23:30 | 26.41998 | 51.35519 | 10255 ft | 323 kts | 253° |
| 2026-05-06 23:30 | 26.40958 | 51.32473 | 9811 ft | 313 kts | 246° |
| 2026-05-06 23:31 | 26.40081 | 51.30281 | 9446 ft | 306 kts | 246° |
| 2026-05-06 23:31 | 26.39210 | 51.28139 | 9071 ft | 300 kts | 246° |
| 2026-05-06 23:31 | 26.38356 | 51.26046 | 8716 ft | 294 kts | 246° |
| 2026-05-06 23:31 | 26.37526 | 51.24017 | 8357 ft | 283 kts | 246° |
| 2026-05-06 23:32 | 26.36976 | 51.22671 | 8118 ft | 283 kts | 246° |
| 2026-05-06 23:32 | 26.36159 | 51.20674 | 7760 ft | 282 kts | 246° |
| 2026-05-06 23:32 | 26.35350 | 51.18699 | 7475 ft | 280 kts | 246° |
| 2026-05-06 23:32 | 26.34540 | 51.16725 | 7189 ft | 281 kts | 246° |
| 2026-05-06 23:33 | 26.33733 | 51.14758 | 6911 ft | 277 kts | 246° |
| 2026-05-06 23:33 | 26.32934 | 51.12808 | 6640 ft | 277 kts | 246° |
| 2026-05-06 23:33 | 26.32144 | 51.10887 | 6359 ft | 276 kts | 246° |
| 2026-05-06 23:33 | 26.31344 | 51.08940 | 6082 ft | 276 kts | 246° |
| 2026-05-06 23:34 | 26.30544 | 51.06995 | 5800 ft | 276 kts | 247° |
| 2026-05-06 23:34 | 26.29751 | 51.05065 | 5524 ft | 271 kts | 247° |
| 2026-05-06 23:34 | 26.28971 | 51.03174 | 5244 ft | 265 kts | 248° |
| 2026-05-06 23:34 | 26.28209 | 51.01326 | 4961 ft | 260 kts | 248° |
| 2026-05-06 23:35 | 26.27463 | 50.99509 | 4685 ft | 255 kts | 248° |
| 2026-05-06 23:35 | 26.26726 | 50.97726 | 4390 ft | 250 kts | 249° |
| 2026-05-06 23:35 | 26.26007 | 50.95978 | 4117 ft | 246 kts | 248° |
| 2026-05-06 23:35 | 26.25298 | 50.94259 | 3842 ft | 242 kts | 248° |
| 2026-05-06 23:36 | 26.24604 | 50.92577 | 3580 ft | 239 kts | 249° |
| 2026-05-06 23:36 | 26.23913 | 50.90901 | 3291 ft | 237 kts | 249° |
| 2026-05-06 23:36 | 26.23230 | 50.89246 | 3005 ft | 235 kts | 249° |
| 2026-05-06 23:36 | 26.22552 | 50.87603 | 2713 ft | 230 kts | 250° |
| 2026-05-06 23:37 | 26.21888 | 50.85998 | 2439 ft | 227 kts | 250° |
| 2026-05-06 23:37 | 26.21229 | 50.84402 | 2164 ft | 227 kts | 251° |
| 2026-05-06 23:37 | 26.20571 | 50.82807 | 1884 ft | 227 kts | 251° |
| 2026-05-06 23:37 | 26.19914 | 50.81213 | 1620 ft | 228 kts | 251° |
| 2026-05-06 23:38 | 26.19268 | 50.79599 | 1494 ft | 226 kts | 257° |
| 2026-05-06 23:38 | 26.19233 | 50.77982 | 1512 ft | 197 kts | 291° |
| 2026-05-06 23:38 | 26.19627 | 50.76600 | 1498 ft | 178 kts | 295° |
| 2026-05-06 23:38 | 26.20177 | 50.75497 | 1521 ft | 154 kts | 310° |
| 2026-05-06 23:39 | 26.20744 | 50.74544 | 1527 ft | 145 kts | 306° |
| 2026-05-06 23:39 | 26.21251 | 50.73587 | 1510 ft | 143 kts | 306° |
| 2026-05-06 23:39 | 26.21774 | 50.72647 | 1499 ft | 141 kts | 307° |
| 2026-05-06 23:39 | 26.22292 | 50.71741 | 1439 ft | 138 kts | 308° |
| 2026-05-06 23:40 | 26.22807 | 50.70840 | 1268 ft | 138 kts | 308° |
| 2026-05-06 23:40 | 26.23320 | 50.69940 | 1090 ft | 138 kts | 307° |
| 2026-05-06 23:40 | 26.23838 | 50.69035 | 906 ft | 139 kts | 307° |
| 2026-05-06 23:40 | 26.24355 | 50.68129 | 748 ft | 140 kts | 307° |
| 2026-05-06 23:41 | 26.24872 | 50.67226 | 573 ft | 136 kts | 308° |
| 2026-05-06 23:41 | 26.25362 | 50.66369 | 394 ft | 127 kts | 304° |
| 2026-05-06 23:41 | 26.25842 | 50.65532 | 235 ft | 131 kts | 306° |
| 2026-05-06 23:41 | 26.26341 | 50.64661 | 52 ft | 135 kts | 305° |
| 2026-05-06 23:42 | 26.26771 | 50.63905 | 27 ft | 78 kts | 303° |
| 2026-05-06 23:42 | 26.26959 | 50.63580 | 23 ft | 25 kts | 300° |
| 2026-05-06 23:42 | 26.27004 | 50.63450 | 22 ft | 0 kts | 296° |
| 2026-05-06 23:44 | 26.26797 | 50.63068 | 27 ft | 0 kts | 213° |
| 2026-05-06 23:54 | 26.24890 | 50.67196 | 573 ft | 408 kts | 308° |